Time;durP1;ratioP1;P1;durP2;ratioP2;P2;SDS_P1;SDS_P2;PMS_P1;PMS_P2;Temp;Humidity;BMP_temperature;BMP_pressure;BME280_temperature;BME280_humidity;BME280_pressure;Samples;Min_cycle;Max_cycle;Signal;HPM_P1;HPM_P2
2023/08/04 00:01:13;;;;;;;;;;;;;;;23.25;29.52;97592.47;4938183;29;1060;-76
2023/08/04 00:03:39;;;;;;;;;;;;;;;23.26;29.39;97592.00;4938551;29;1010;-76
2023/08/04 00:06:10;;;;;;;;;;;;;;;23.37;29.16;97586.69;4938069;29;1974;-76
2023/08/04 00:08:36;;;;;;;;;;;;;;;23.32;29.42;97578.78;4938140;29;917;-76
2023/08/04 00:11:02;;;;;;;;;;;;;;;23.45;28.96;97586.41;4936865;29;989;-76
2023/08/04 00:13:28;;;;;;;;;;;;;;;23.47;29.30;97583.91;4922215;29;1114;-76
2023/08/04 00:15:53;;;;;;;;;;;;;;;23.20;29.59;97585.34;4922014;29;926;-75
2023/08/04 00:18:19;;;;;;;;;;;;;;;23.12;29.49;97581.22;4920740;29;1232;-75
2023/08/04 00:20:45;;;;;;;;;;;;;;;23.20;29.53;97574.00;4920811;29;1082;-76
2023/08/04 00:23:10;;;;;;;;;;;;;;;23.35;29.27;97568.53;4920659;29;1216;-75
2023/08/04 00:25:36;;;;;;;;;;;;;;;23.40;29.06;97567.91;4920807;29;909;-76
2023/08/04 00:28:01;;;;;;;;;;;;;;;23.24;29.17;97568.97;4920219;29;1906;-75
2023/08/04 00:30:27;;;;;;;;;;;;;;;23.42;29.01;97571.09;4904890;29;1446;-76
2023/08/04 00:32:53;;;;;;;;;;;;;;;23.40;28.98;97574.38;4936447;29;914;-75
2023/08/04 00:35:19;;;;;;;;;;;;;;;23.31;29.17;97567.88;4920741;29;1221;-76
2023/08/04 00:37:44;;;;;;;;;;;;;;;23.27;29.31;97565.19;4920529;29;1165;-75
2023/08/04 00:40:10;;;;;;;;;;;;;;;23.18;29.42;97573.69;4936176;29;941;-75
2023/08/04 00:42:36;;;;;;;;;;;;;;;23.35;29.32;97568.53;4936222;29;1042;-76
2023/08/04 00:45:03;;;;;;;;;;;;;;;23.37;29.17;97563.19;4920376;29;1213;-76
2023/08/04 00:47:35;;;;;;;;;;;;;;;23.33;29.37;97557.66;4920478;29;1911;-75
2023/08/04 00:50:01;;;;;;;;;;;;;;;23.56;28.87;97558.34;4933403;29;1160;-75
2023/08/04 00:52:26;;;;;;;;;;;;;;;23.55;28.76;97551.09;4935859;29;1093;-76
2023/08/04 00:54:52;;;;;;;;;;;;;;;23.45;29.05;97560.84;4920112;29;1038;-76
2023/08/04 00:57:17;;;;;;;;;;;;;;;23.48;28.94;97557.88;4920129;29;990;-76
2023/08/04 00:59:43;;;;;;;;;;;;;;;23.28;29.37;97555.44;4920528;29;949;-76
2023/08/04 01:02:09;;;;;;;;;;;;;;;23.45;29.04;97563.69;4919953;29;1004;-75
2023/08/04 01:04:34;;;;;;;;;;;;;;;23.24;29.56;97554.78;4920125;29;1026;-76
2023/08/04 01:07:05;;;;;;;;;;;;;;;23.24;29.30;97559.66;4920263;29;1994;-75
2023/08/04 01:09:35;;;;;;;;;;;;;;;23.59;28.84;97565.94;4920140;29;1278;-76
2023/08/04 01:12:09;;;;;;;;;;;;;;;23.47;29.16;97566.84;4888809;29;1158;-76
2023/08/04 01:14:34;;;;;;;;;;;;;;;23.71;28.63;97567.88;4863760;29;1370;-75
2023/08/04 01:17:20;;;;;;;;;;;;;;;23.30;29.38;97564.25;4845288;29;1369;-76
2023/08/04 01:19:45;;;;;;;;;;;;;;;23.36;29.09;97562.41;4860641;29;1097;-75
2023/08/04 01:22:11;;;;;;;;;;;;;;;23.48;28.77;97563.53;4845147;29;1020;-75
2023/08/04 01:24:37;;;;;;;;;;;;;;;23.39;29.09;97564.28;4863776;29;939;-76
2023/08/04 01:27:02;;;;;;;;;;;;;;;23.33;29.11;97562.53;4848210;29;1966;-76
2023/08/04 01:29:29;;;;;;;;;;;;;;;23.46;29.05;97559.56;4848406;29;1258;-75
2023/08/04 01:31:55;;;;;;;;;;;;;;;23.55;28.89;97557.56;4848465;29;1124;-75
2023/08/04 01:34:20;;;;;;;;;;;;;;;23.25;29.29;97556.34;4863875;29;1001;-76
2023/08/04 01:36:46;;;;;;;;;;;;;;;23.45;28.85;97563.69;4848439;29;1124;-75
2023/08/04 01:39:11;;;;;;;;;;;;;;;23.49;28.82;97564.31;4863534;29;1052;-75
2023/08/04 01:41:37;;;;;;;;;;;;;;;23.54;29.02;97560.88;4863714;29;1128;-76
2023/08/04 01:44:03;;;;;;;;;;;;;;;23.30;29.36;97558.56;4881433;29;946;-75
2023/08/04 01:46:28;;;;;;;;;;;;;;;23.51;28.98;97561.81;4916779;29;1927;-75
2023/08/04 01:48:54;;;;;;;;;;;;;;;23.20;29.31;97559.78;4937761;29;984;-76
2023/08/04 01:51:19;;;;;;;;;;;;;;;23.35;29.22;97566.47;4940292;29;1080;-75
2023/08/04 01:53:45;;;;;;;;;;;;;;;23.49;28.79;97564.31;4924930;29;1145;-76
2023/08/04 01:56:10;;;;;;;;;;;;;;;23.34;28.93;97564.91;4941749;29;906;-76
2023/08/04 01:58:36;;;;;;;;;;;;;;;23.38;28.89;97562.72;4940455;29;1143;-75
2023/08/04 02:01:01;;;;;;;;;;;;;;;23.47;28.76;97566.84;4939166;29;970;-75
2023/08/04 02:03:27;;;;;;;;;;;;;;;23.32;29.09;97567.44;4940418;29;1129;-77
2023/08/04 02:05:54;;;;;;;;;;;;;;;23.60;28.68;97567.50;4940276;29;1247;-76
2023/08/04 02:08:20;;;;;;;;;;;;;;;23.56;28.59;97564.81;4941549;29;1011;-75
2023/08/04 02:10:46;;;;;;;;;;;;;;;23.39;29.22;97569.19;4924364;29;1049;-76
2023/08/04 02:13:12;;;;;;;;;;;;;;;23.46;28.78;97571.72;4924345;29;978;-75
2023/08/04 02:15:37;;;;;;;;;;;;;;;23.36;28.97;97565.25;4922618;29;950;-76
2023/08/04 02:18:03;;;;;;;;;;;;;;;23.23;29.43;97578.75;4907219;29;1286;-75
2023/08/04 02:20:29;;;;;;;;;;;;;;;23.23;29.37;97573.06;4923049;29;927;-76
2023/08/04 02:22:54;;;;;;;;;;;;;;;23.04;29.60;97583.53;4938526;29;1037;-76
2023/08/04 02:25:20;;;;;;;;;;;;;;;23.32;29.34;97583.69;4906889;29;937;-76
2023/08/04 02:27:46;;;;;;;;;;;;;;;23.27;29.11;97581.44;4938290;29;1910;-76
2023/08/04 02:30:12;;;;;;;;;;;;;;;23.07;29.62;97584.66;4938591;29;955;-75
2023/08/04 02:32:37;;;;;;;;;;;;;;;23.30;29.14;97581.28;4907038;29;1161;-76
2023/08/04 02:35:03;;;;;;;;;;;;;;;23.29;29.28;97578.94;4922676;29;1224;-75
2023/08/04 02:37:28;;;;;;;;;;;;;;;23.27;29.20;97579.41;4903521;29;1272;-76
2023/08/04 02:39:54;;;;;;;;;;;;;;;23.35;29.09;97580.69;4919390;29;1127;-75
2023/08/04 02:42:20;;;;;;;;;;;;;;;23.18;29.30;97589.91;4919348;29;1033;-76
2023/08/04 02:44:45;;;;;;;;;;;;;;;23.29;29.28;97591.06;4919410;29;1044;-76
2023/08/04 02:47:11;;;;;;;;;;;;;;;23.25;29.37;97596.09;4917454;29;1915;-76
2023/08/04 02:49:37;;;;;;;;;;;;;;;23.33;28.88;97588.88;4890964;29;964;-75
2023/08/04 02:52:03;;;;;;;;;;;;;;;23.34;28.90;97590.44;4906792;29;1197;-75
2023/08/04 02:54:29;;;;;;;;;;;;;;;23.34;29.02;97586.81;4922342;29;999;-75
2023/08/04 02:56:55;;;;;;;;;;;;;;;23.40;29.02;97597.09;4922342;29;1723;-76
2023/08/04 02:59:20;;;;;;;;;;;;;;;23.23;29.25;97587.25;4906591;29;1147;-76
2023/08/04 03:01:46;;;;;;;;;;;;;;;23.14;29.41;97595.72;4906791;29;958;-75
2023/08/04 03:04:12;;;;;;;;;;;;;;;23.37;29.01;97586.69;4937886;29;1036;-76
2023/08/04 03:06:38;;;;;;;;;;;;;;;23.27;29.35;97587.13;4937838;29;1910;-75
2023/08/04 03:09:04;;;;;;;;;;;;;;;23.40;28.98;97591.41;4865431;29;1007;-75
2023/08/04 03:11:29;;;;;;;;;;;;;;;23.43;29.11;97600.28;4881415;29;1043;-76
2023/08/04 03:13:55;;;;;;;;;;;;;;;23.37;28.85;97595.22;4867376;29;1095;-75
2023/08/04 03:16:21;;;;;;;;;;;;;;;23.30;29.05;97592.63;4884209;29;988;-77
2023/08/04 03:18:46;;;;;;;;;;;;;;;23.58;28.42;97595.59;4899724;29;1069;-76
2023/08/04 03:21:12;;;;;;;;;;;;;;;23.56;28.66;97600.94;4900033;29;1004;-75
2023/08/04 03:23:38;;;;;;;;;;;;;;;23.51;28.83;97596.66;4853017;29;1060;-76
2023/08/04 03:26:03;;;;;;;;;;;;;;;23.24;29.21;97605.88;4868314;29;2036;-76
2023/08/04 03:28:29;;;;;;;;;;;;;;;23.50;28.77;97602.81;4884061;29;1244;-76
2023/08/04 03:30:54;;;;;;;;;;;;;;;23.41;29.04;97597.88;4899909;29;1002;-76
2023/08/04 03:33:20;;;;;;;;;;;;;;;23.64;28.70;97603.06;4868655;29;1263;-76
2023/08/04 03:35:45;;;;;;;;;;;;;;;23.21;29.33;97601.13;4846161;29;1619;-76
2023/08/04 03:38:11;;;;;;;;;;;;;;;23.14;29.54;97607.06;4846034;29;1884;-75
2023/08/04 03:40:37;;;;;;;;;;;;;;;23.47;29.19;97612.28;4888260;29;1258;-75
2023/08/04 03:43:02;;;;;;;;;;;;;;;23.44;29.08;97610.38;4902047;29;2071;-75
2023/08/04 03:45:28;;;;;;;;;;;;;;;23.52;28.94;97608.81;4918232;29;1125;-75
2023/08/04 03:47:53;;;;;;;;;;;;;;;23.18;29.47;97613.41;4902077;29;1975;-76
2023/08/04 03:50:19;;;;;;;;;;;;;;;23.34;29.15;97616.00;4902435;29;1179;-76
2023/08/04 03:52:45;;;;;;;;;;;;;;;23.50;29.18;97611.34;4902470;29;1147;-77
2023/08/04 03:55:10;;;;;;;;;;;;;;;23.34;29.51;97604.66;4916990;29;1533;-76
2023/08/04 03:57:36;;;;;;;;;;;;;;;23.17;29.64;97600.47;4917812;29;1404;-75
2023/08/04 04:00:02;;;;;;;;;;;;;;;23.18;29.55;97607.72;4902441;29;1524;-76
2023/08/04 04:02:37;;;;;;;;;;;;;;;23.48;29.18;97613.88;4903458;29;935;-76
2023/08/04 04:05:03;;;;;;;;;;;;;;;23.51;28.98;97612.91;4901085;29;1530;-76
2023/08/04 04:07:28;;;;;;;;;;;;;;;23.54;29.03;97612.00;4906254;29;1914;-76
2023/08/04 04:09:54;;;;;;;;;;;;;;;23.63;29.22;97617.75;4918086;29;898;-75
2023/08/04 04:12:19;;;;;;;;;;;;;;;23.68;28.91;97617.13;4917209;29;1526;-76
2023/08/04 04:14:45;;;;;;;;;;;;;;;23.65;29.26;97615.22;4917742;29;1026;-76
2023/08/04 04:17:11;;;;;;;;;;;;;;;23.38;29.52;97613.81;4898933;29;1086;-76
2023/08/04 04:19:36;;;;;;;;;;;;;;;23.48;29.36;97613.88;4914800;29;1220;-76
2023/08/04 04:22:02;;;;;;;;;;;;;;;23.52;29.04;97609.63;4898818;29;1241;-76
2023/08/04 04:24:27;;;;;;;;;;;;;;;23.37;29.51;97620.75;4914663;29;1025;-75
2023/08/04 04:26:53;;;;;;;;;;;;;;;23.42;29.51;97613.69;4913731;29;1902;-76
2023/08/04 04:29:18;;;;;;;;;;;;;;;23.51;29.29;97618.59;4898135;29;1451;-76
2023/08/04 04:31:44;;;;;;;;;;;;;;;23.63;29.03;97626.25;4898459;29;920;-75
2023/08/04 04:34:10;;;;;;;;;;;;;;;23.65;28.98;97623.72;4913136;29;1369;-76
2023/08/04 04:36:35;;;;;;;;;;;;;;;23.46;29.38;97616.38;4861265;29;995;-76
2023/08/04 04:39:01;;;;;;;;;;;;;;;23.20;29.81;97627.91;4877060;29;1122;-76
2023/08/04 04:41:27;;;;;;;;;;;;;;;23.55;29.17;97622.09;4842672;29;1163;-76
2023/08/04 04:43:53;;;;;;;;;;;;;;;23.32;29.62;97629.88;4844260;29;991;-76
2023/08/04 04:46:19;;;;;;;;;;;;;;;23.43;29.70;97631.50;4843676;29;1919;-76
2023/08/04 04:48:44;;;;;;;;;;;;;;;23.36;29.78;97629.72;4858600;29;1728;-76
2023/08/04 04:51:10;;;;;;;;;;;;;;;23.58;29.26;97629.69;4895039;29;1247;-76
2023/08/04 04:53:35;;;;;;;;;;;;;;;23.74;29.19;97632.28;4879364;29;986;-75
2023/08/04 04:56:01;;;;;;;;;;;;;;;23.81;28.86;97637.66;4879646;29;1295;-76
2023/08/04 04:58:27;;;;;;;;;;;;;;;23.55;29.15;97641.97;4864190;29;1127;-76
2023/08/04 05:00:53;;;;;;;;;;;;;;;23.58;29.18;97641.84;4879436;29;1026;-76
2023/08/04 05:03:18;;;;;;;;;;;;;;;23.55;29.13;97636.28;4865374;29;1614;-76
2023/08/04 05:05:44;;;;;;;;;;;;;;;23.44;29.65;97642.41;4862112;29;1463;-75
2023/08/04 05:08:10;;;;;;;;;;;;;;;23.32;29.77;97635.56;4907490;29;1918;-76
2023/08/04 05:10:35;;;;;;;;;;;;;;;23.50;29.35;97640.53;4915966;29;1589;-76
2023/08/04 05:13:01;;;;;;;;;;;;;;;23.48;29.54;97654.41;4947191;29;988;-76
2023/08/04 05:15:26;;;;;;;;;;;;;;;23.47;29.52;97635.78;4956308;29;1120;-76
2023/08/04 05:17:52;;;;;;;;;;;;;;;23.46;29.45;97644.75;4957149;28;1244;-76
2023/08/04 05:20:17;;;;;;;;;;;;;;;23.59;29.31;97637.72;4960203;29;896;-76
2023/08/04 05:22:43;;;;;;;;;;;;;;;23.60;29.08;97638.50;4959626;29;1453;-75
2023/08/04 05:25:09;;;;;;;;;;;;;;;23.64;29.10;97644.88;4976464;28;940;-76
2023/08/04 05:27:34;;;;;;;;;;;;;;;23.62;29.05;97647.34;4976155;28;1926;-76
2023/08/04 05:30:00;;;;;;;;;;;;;;;23.40;29.68;97647.41;4960406;29;1224;-76
2023/08/04 05:32:26;;;;;;;;;;;;;;;23.29;30.09;97645.00;4976063;28;967;-76
2023/08/04 05:34:52;;;;;;;;;;;;;;;23.35;29.82;97642.34;4976258;28;998;-75
2023/08/04 05:37:17;;;;;;;;;;;;;;;23.52;29.43;97648.56;4959146;29;1421;-76
2023/08/04 05:39:43;;;;;;;;;;;;;;;23.31;29.97;97638.84;4960453;29;879;-75
2023/08/04 05:42:09;;;;;;;;;;;;;;;23.38;29.44;97639.38;4959797;29;1093;-76
2023/08/04 05:44:34;;;;;;;;;;;;;;;23.46;29.79;97650.44;4943759;29;924;-76
2023/08/04 05:47:00;;;;;;;;;;;;;;;23.58;29.39;97641.03;4976086;28;1915;-76
2023/08/04 05:49:25;;;;;;;;;;;;;;;23.65;29.24;97646.44;4959859;29;857;-76
2023/08/04 05:51:51;;;;;;;;;;;;;;;23.39;29.93;97651.53;4943567;29;1502;-75
2023/08/04 05:54:16;;;;;;;;;;;;;;;23.52;29.68;97646.53;4943205;29;1684;-76
2023/08/04 05:56:42;;;;;;;;;;;;;;;23.41;29.75;97649.00;4959589;29;940;-75
2023/08/04 05:59:07;;;;;;;;;;;;;;;23.40;29.80;97653.88;4939203;29;960;-76
2023/08/04 06:01:33;;;;;;;;;;;;;;;23.50;29.81;97663.25;4922052;29;1470;-76
2023/08/04 06:03:59;;;;;;;;;;;;;;;23.59;29.68;97665.34;4922285;29;1450;-76
2023/08/04 06:06:24;;;;;;;;;;;;;;;23.82;29.42;97659.13;4939358;29;1914;-75
2023/08/04 06:08:50;;;;;;;;;;;;;;;23.77;29.26;97658.97;4923169;29;1093;-75
2023/08/04 06:11:15;;;;;;;;;;;;;;;23.56;29.79;97664.22;4938972;29;1007;-77
2023/08/04 06:13:41;;;;;;;;;;;;;;;23.45;29.71;97665.91;4938876;29;958;-76
2023/08/04 06:16:06;;;;;;;;;;;;;;;23.45;29.98;97668.75;4923079;29;920;-76
2023/08/04 06:18:32;;;;;;;;;;;;;;;23.39;30.15;97666.50;4938256;29;1348;-75
2023/08/04 06:20:58;;;;;;;;;;;;;;;23.52;30.03;97666.44;4938835;29;977;-76
2023/08/04 06:23:23;;;;;;;;;;;;;;;23.65;29.79;97669.97;4923013;29;1252;-75
2023/08/04 06:25:49;;;;;;;;;;;;;;;23.68;29.67;97668.25;4938730;29;986;-76
2023/08/04 06:28:14;;;;;;;;;;;;;;;23.63;29.78;97668.88;4938408;29;1975;-75
2023/08/04 06:30:40;;;;;;;;;;;;;;;23.66;29.61;97662.22;4950214;29;935;-76
2023/08/04 06:33:05;;;;;;;;;;;;;;;23.70;29.62;97657.22;4924689;29;1432;-75
2023/08/04 06:35:31;;;;;;;;;;;;;;;23.70;29.76;97662.88;4940755;29;894;-76
2023/08/04 06:37:57;;;;;;;;;;;;;;;23.56;29.99;97671.94;4924462;29;936;-76
2023/08/04 06:40:23;;;;;;;;;;;;;;;23.55;30.08;97674.00;4939750;29;1291;-75
2023/08/04 06:42:48;;;;;;;;;;;;;;;23.61;30.02;97680.63;4939868;29;1039;-76
2023/08/04 06:45:15;;;;;;;;;;;;;;;23.56;30.11;97674.78;4923743;29;1206;-75
2023/08/04 06:47:40;;;;;;;;;;;;;;;23.42;30.42;97675.38;4927185;29;1910;-76
2023/08/04 06:50:07;;;;;;;;;;;;;;;23.36;30.62;97675.97;4959385;29;1320;-75
2023/08/04 06:52:32;;;;;;;;;;;;;;;23.50;30.24;97679.50;4960010;28;896;-75
2023/08/04 06:54:58;;;;;;;;;;;;;;;23.44;33.84;97678.53;4926876;29;1201;-72
2023/08/04 06:57:24;;;;;;;;;;;;;;;24.26;35.01;97684.53;4937998;29;1055;-72
2023/08/04 06:59:49;;;;;;;;;;;;;;;24.06;37.47;97675.63;4906135;29;1560;-71
2023/08/04 07:02:15;;;;;;;;;;;;;;;23.98;39.30;97680.00;4922346;29;1094;-70
2023/08/04 07:04:40;;;;;;;;;;;;;;;23.85;39.38;97683.78;4938425;29;1159;-71
2023/08/04 07:07:06;;;;;;;;;;;;;;;23.19;40.78;97677.44;4938390;29;1911;-70
2023/08/04 07:09:31;;;;;;;;;;;;;;;23.90;38.74;97680.31;4938073;29;1009;-71
2023/08/04 07:11:57;;;;;;;;;;;;;;;23.43;39.66;97683.41;4921963;29;1374;-70
2023/08/04 07:14:22;;;;;;;;;;;;;;;23.45;39.51;97682.94;4937434;29;1341;-70
2023/08/04 07:16:48;;;;;;;;;;;;;;;23.48;39.01;97684.84;4938053;29;1031;-71
2023/08/04 07:19:14;;;;;;;;;;;;;;;23.48;39.36;97687.69;4953565;29;989;-70
2023/08/04 07:21:39;;;;;;;;;;;;;;;23.75;38.35;97690.69;4937746;29;998;-71
2023/08/04 07:24:05;;;;;;;;;;;;;;;23.67;38.67;97695.06;4937830;29;1107;-72
2023/08/04 07:26:32;;;;;;;;;;;;;;;23.87;38.34;97697.50;4921629;29;1973;-77
2023/08/04 07:28:57;;;;;;;;;;;;;;;23.70;36.79;97694.13;4934296;29;1372;-76
2023/08/04 07:31:23;;;;;;;;;;;;;;;23.52;35.51;97694.00;4958795;29;965;-76
2023/08/04 07:33:48;;;;;;;;;;;;;;;23.37;34.44;97683.22;4958013;29;1089;-76
2023/08/04 07:36:14;;;;;;;;;;;;;;;23.25;35.77;97698.28;4957874;29;1565;-72
2023/08/04 07:38:40;;;;;;;;;;;;;;;23.24;37.94;97696.69;4940843;29;1397;-72
2023/08/04 07:41:05;;;;;;;;;;;;;;;23.39;38.35;97696.94;4956941;28;926;-70
2023/08/04 07:43:31;;;;;;;;;;;;;;;23.24;39.42;97696.69;4957723;29;895;-72
2023/08/04 07:45:56;;;;;;;;;;;;;;;22.82;40.15;97699.06;4957083;29;1417;-72
2023/08/04 07:48:22;;;;;;;;;;;;;;;23.02;40.19;97701.59;4958820;28;1934;-72
2023/08/04 07:50:48;;;;;;;;;;;;;;;23.52;39.34;97699.69;4957977;29;949;-72
2023/08/04 07:53:13;;;;;;;;;;;;;;;23.29;39.43;97698.94;4957595;29;951;-72
2023/08/04 07:55:39;;;;;;;;;;;;;;;23.19;40.13;97705.03;4941306;29;945;-72
2023/08/04 07:58:08;;;;;;;;;;;;;;;23.45;39.05;97699.97;4921172;29;1003;-73
2023/08/04 08:00:34;;;;;;;;;;;;;;;23.81;37.99;97711.53;4904448;29;1520;-72
2023/08/04 08:03:00;;;;;;;;;;;;;;;23.58;38.56;97709.22;4921095;29;985;-72
2023/08/04 08:05:25;;;;;;;;;;;;;;;23.65;38.54;97704.06;4936752;29;1003;-72
2023/08/04 08:07:51;;;;;;;;;;;;;;;23.72;38.07;97708.66;4920751;29;1985;-72
2023/08/04 08:10:17;;;;;;;;;;;;;;;23.61;38.14;97709.03;4917702;29;1046;-72
2023/08/04 08:12:43;;;;;;;;;;;;;;;23.68;37.73;97705.19;4901748;29;1009;-72
2023/08/04 08:15:08;;;;;;;;;;;;;;;23.70;37.24;97705.50;4886012;29;2383;-76
2023/08/04 08:17:34;;;;;;;;;;;;;;;23.29;37.19;97707.44;4886304;29;1040;-69
2023/08/04 08:19:59;;;;;;;;;;;;;;;23.38;36.45;97710.34;4917826;29;939;-75
2023/08/04 08:22:25;;;;;;;;;;;;;;;23.16;35.26;97712.44;4886542;29;995;-76
2023/08/04 08:24:54;;;;;;;;;;;;;;;22.99;34.71;97708.19;4901832;29;1032;-76
2023/08/04 08:27:19;;;;;;;;;;;;;;;22.41;34.80;97714.28;4901794;29;1911;-76
2023/08/04 08:29:47;;;;;;;;;;;;;;;22.51;34.50;97710.28;4931213;29;1342;-76
2023/08/04 08:32:12;;;;;;;;;;;;;;;22.59;36.10;97714.47;4939837;29;994;-76
2023/08/04 08:34:38;;;;;;;;;;;;;;;22.77;36.62;97714.63;4955887;29;963;-75
2023/08/04 08:37:06;;;;;;;;;;;;;;;22.82;37.18;97711.19;4955630;28;967;-75
2023/08/04 08:39:32;;;;;;;;;;;;;;;22.90;37.55;97711.78;4939285;29;1078;-76
2023/08/04 08:41:58;;;;;;;;;;;;;;;23.12;37.05;97712.56;4952225;29;900;-76
2023/08/04 08:44:23;;;;;;;;;;;;;;;23.24;36.98;97712.94;4957118;28;1420;-76
2023/08/04 08:46:49;;;;;;;;;;;;;;;23.33;36.49;97713.00;4956399;29;1910;-76
2023/08/04 08:49:14;;;;;;;;;;;;;;;23.10;36.99;97711.41;4901176;29;1003;-75
2023/08/04 08:51:41;;;;;;;;;;;;;;;23.35;36.02;97713.31;4901412;29;1316;-76
2023/08/04 08:54:07;;;;;;;;;;;;;;;23.46;35.52;97708.00;4899365;29;1549;-76
2023/08/04 08:56:33;;;;;;;;;;;;;;;23.48;35.06;97716.09;4898491;29;1566;-75
2023/08/04 08:58:58;;;;;;;;;;;;;;;23.54;34.78;97719.91;4870167;29;1138;-75
2023/08/04 09:01:24;;;;;;;;;;;;;;;23.58;34.38;97720.56;4900463;29;1309;-76
2023/08/04 09:03:50;;;;;;;;;;;;;;;23.47;34.39;97723.03;4876411;29;1610;-76
2023/08/04 09:06:15;;;;;;;;;;;;;;;23.59;33.71;97716.47;4848520;29;1911;-76
2023/08/04 09:08:41;;;;;;;;;;;;;;;23.60;33.73;97729.41;4879105;29;1077;-75
2023/08/04 09:11:06;;;;;;;;;;;;;;;23.50;33.55;97720.03;4841883;29;1321;-76
2023/08/04 09:13:32;;;;;;;;;;;;;;;23.67;33.19;97723.47;4826821;29;1321;-76
2023/08/04 09:16:00;;;;;;;;;;;;;;;23.38;33.52;97724.56;4827255;29;999;-76
2023/08/04 09:18:26;;;;;;;;;;;;;;;23.53;32.86;97724.00;4827906;29;1123;-76
2023/08/04 09:21:21;;;;;;;;;;;;;;;23.36;33.11;97721.41;4884564;29;974;-76
2023/08/04 09:23:48;;;;;;;;;;;;;;;23.63;32.75;97722.84;4878907;29;1002;-76
2023/08/04 09:26:13;;;;;;;;;;;;;;;23.58;32.60;97720.56;4840303;29;1972;-76
2023/08/04 09:28:39;;;;;;;;;;;;;;;23.69;32.26;97726.66;4826623;29;1127;-76
2023/08/04 09:31:05;;;;;;;;;;;;;;;23.69;32.21;97720.19;4842366;29;963;-76
2023/08/04 09:33:31;;;;;;;;;;;;;;;23.81;31.79;97728.59;4842127;29;1026;-75
2023/08/04 09:36:10;;;;;;;;;;;;;;;23.43;32.45;97719.53;4824693;29;1019;-77
2023/08/04 09:38:36;;;;;;;;;;;;;;;23.56;32.11;97723.84;4837593;29;1430;-76
2023/08/04 09:41:02;;;;;;;;;;;;;;;23.53;32.45;97729.69;4841963;29;995;-76
2023/08/04 09:43:28;;;;;;;;;;;;;;;23.47;32.27;97717.34;4806651;29;1326;-75
2023/08/04 09:46:03;;;;;;;;;;;;;;;23.48;32.32;97727.44;4805945;29;1163;-77
2023/08/04 09:48:28;;;;;;;;;;;;;;;23.55;31.97;97727.16;4813937;29;1911;-77
2023/08/04 09:51:09;;;;;;;;;;;;;;;23.66;31.74;97727.56;4824158;29;1047;-77
2023/08/04 09:53:41;;;;;;;;;;;;;;;23.71;31.67;97721.28;4808552;29;1293;-75
2023/08/04 09:56:08;;;;;;;;;;;;;;;23.53;31.91;97724.00;4824126;29;1602;-76
2023/08/04 09:58:34;;;;;;;;;;;;;;;23.37;32.39;97716.50;4846934;29;1419;-76
2023/08/04 10:01:00;;;;;;;;;;;;;;;23.47;32.06;97717.34;4879188;29;1045;-76
2023/08/04 10:03:25;;;;;;;;;;;;;;;23.44;32.01;97715.44;4897484;29;985;-77
2023/08/04 10:05:52;;;;;;;;;;;;;;;23.71;31.75;97724.13;4901144;29;958;-76
2023/08/04 10:08:18;;;;;;;;;;;;;;;23.54;31.78;97717.06;4901398;29;1911;-76
2023/08/04 10:10:44;;;;;;;;;;;;;;;23.57;31.62;97718.97;4900866;29;1125;-76
2023/08/04 10:13:09;;;;;;;;;;;;;;;23.53;31.90;97724.00;4918179;29;1372;-75
2023/08/04 10:15:35;;;;;;;;;;;;;;;23.58;31.71;97714.88;4886333;29;1476;-76
2023/08/04 10:18:00;;;;;;;;;;;;;;;23.49;31.75;97720.50;4921901;29;2062;-76
2023/08/04 10:20:27;;;;;;;;;;;;;;;23.66;31.54;97713.38;4925951;29;1133;-74
2023/08/04 10:22:52;;;;;;;;;;;;;;;23.85;31.06;97717.88;4940188;29;1142;-76
2023/08/04 10:25:18;;;;;;;;;;;;;;;23.69;31.61;97720.97;4924153;29;1193;-76
2023/08/04 10:27:47;;;;;;;;;;;;;;;23.49;31.59;97717.66;4919503;29;1978;-76
2023/08/04 10:30:12;;;;;;;;;;;;;;;23.47;31.44;97714.50;4936441;29;1304;-76
2023/08/04 10:32:38;;;;;;;;;;;;;;;23.51;31.65;97715.16;4937995;29;1506;-77
2023/08/04 10:35:05;;;;;;;;;;;;;;;23.58;31.47;97712.03;4921113;29;1331;-76
2023/08/04 10:37:36;;;;;;;;;;;;;;;23.69;31.41;97715.28;4938590;29;1087;-76
2023/08/04 10:40:02;;;;;;;;;;;;;;;23.39;31.65;97708.31;4938741;29;986;-76
2023/08/04 10:42:28;;;;;;;;;;;;;;;23.50;31.72;97713.56;4938459;29;962;-76
2023/08/04 10:44:55;;;;;;;;;;;;;;;23.62;31.57;97710.66;4938755;29;1038;-76
2023/08/04 10:47:30;;;;;;;;;;;;;;;23.79;31.14;97719.75;4938155;29;1989;-76
2023/08/04 10:49:56;;;;;;;;;;;;;;;23.68;31.46;97719.38;4936596;29;1397;-76
2023/08/04 10:52:22;;;;;;;;;;;;;;;23.60;31.49;97720.88;4922308;29;1104;-76
2023/08/04 10:54:48;;;;;;;;;;;;;;;23.45;31.70;97720.63;4922245;29;950;-76
2023/08/04 10:57:21;;;;;;;;;;;;;;;23.60;31.41;97718.03;4865902;29;1213;-77
2023/08/04 10:59:49;;;;;;;;;;;;;;;23.78;31.09;97721.00;4900475;29;1631;-76
2023/08/04 11:02:18;;;;;;;;;;;;;;;23.69;31.01;97726.66;4916128;29;1410;-76
2023/08/04 11:04:45;;;;;;;;;;;;;;;23.50;31.63;97724.94;4921980;29;1034;-76
2023/08/04 11:07:11;;;;;;;;;;;;;;;23.62;31.19;97724.03;4899652;29;1922;-75
2023/08/04 11:09:37;;;;;;;;;;;;;;;23.35;31.55;97722.63;4884133;29;1059;-76
2023/08/04 11:12:05;;;;;;;;;;;;;;;23.75;31.17;97716.25;4899867;29;1035;-76
2023/08/04 11:14:30;;;;;;;;;;;;;;;23.61;31.09;97725.28;4868672;29;1154;-76
2023/08/04 11:17:00;;;;;;;;;;;;;;;23.57;31.16;97719.78;4858894;29;1445;-76
2023/08/04 11:19:26;;;;;;;;;;;;;;;23.78;30.98;97723.06;4877697;29;1435;-77
2023/08/04 11:21:51;;;;;;;;;;;;;;;23.69;31.04;97718.13;4868696;29;987;-76
2023/08/04 11:24:21;;;;;;;;;;;;;;;23.49;31.29;97720.50;4900021;29;1058;-76
2023/08/04 11:26:47;;;;;;;;;;;;;;;23.37;31.57;97720.13;4899396;29;1907;-75
2023/08/04 11:29:13;;;;;;;;;;;;;;;23.78;30.88;97718.16;4886873;29;1075;-75
2023/08/04 11:31:40;;;;;;;;;;;;;;;23.49;31.25;97718.47;4921865;29;1121;-76
2023/08/04 11:34:11;;;;;;;;;;;;;;;23.77;30.96;97716.56;4905377;29;1311;-76
2023/08/04 11:36:38;;;;;;;;;;;;;;;23.58;31.06;97717.72;4921573;29;1296;-77
2023/08/04 11:39:04;;;;;;;;;;;;;;;23.40;31.50;97718.41;4952937;29;910;-75
2023/08/04 11:41:30;;;;;;;;;;;;;;;23.81;30.82;97716.44;4957326;29;906;-76
2023/08/04 11:43:55;;;;;;;;;;;;;;;23.69;30.88;97723.81;4941740;29;1331;-76
2023/08/04 11:46:21;;;;;;;;;;;;;;;23.75;30.61;97719.09;4958398;28;1906;-77
2023/08/04 11:48:46;;;;;;;;;;;;;;;23.66;31.00;97719.03;4958416;28;1584;-76
2023/08/04 11:51:12;;;;;;;;;;;;;;;23.66;30.86;97719.03;4957761;29;973;-76
2023/08/04 11:53:38;;;;;;;;;;;;;;;23.51;31.03;97715.94;4922690;29;1358;-77
2023/08/04 11:56:04;;;;;;;;;;;;;;;23.50;31.14;97716.41;4958771;29;1045;-76
2023/08/04 11:58:33;;;;;;;;;;;;;;;23.45;31.15;97717.78;4973338;28;997;-76
2023/08/04 12:00:59;;;;;;;;;;;;;;;23.63;30.77;97711.47;4962580;28;1509;-77
2023/08/04 12:03:25;;;;;;;;;;;;;;;23.57;31.90;97721.78;4933753;29;1538;-70
2023/08/04 12:05:51;;;;;;;;;;;;;;;24.29;32.47;97694.94;4955051;29;1473;-69
2023/08/04 12:08:16;;;;;;;;;;;;;;;24.03;34.44;97694.41;4955664;29;1993;-69
2023/08/04 12:10:42;;;;;;;;;;;;;;;24.04;35.46;97703.75;4939896;29;975;-70
2023/08/04 12:13:08;;;;;;;;;;;;;;;23.96;35.58;97706.06;4936429;29;1010;-73
2023/08/04 12:15:54;;;;;;;;;;;;;;;23.92;35.79;97700.53;4936366;29;1077;-69
2023/08/04 12:18:26;;;;;;;;;;;;;;;23.52;36.48;97702.53;4932159;29;1505;-68
2023/08/04 12:20:52;;;;;;;;;;;;;;;23.52;36.44;97694.81;4933989;29;1606;-68
2023/08/04 12:23:17;;;;;;;;;;;;;;;23.82;35.96;97695.28;4936221;29;1624;-72
2023/08/04 12:25:43;;;;;;;;;;;;;;;23.91;34.75;97690.41;4936590;29;1097;-72
2023/08/04 12:28:10;;;;;;;;;;;;;;;23.61;34.33;97691.22;4935569;29;1973;-72
2023/08/04 12:30:36;;;;;;;;;;;;;;;23.57;33.88;97691.38;4936338;29;984;-72
2023/08/04 12:33:01;;;;;;;;;;;;;;;23.25;33.97;97691.81;4935919;29;1049;-73
2023/08/04 12:35:27;;;;;;;;;;;;;;;23.04;33.75;97682.06;4953298;29;1584;-73
2023/08/04 12:37:53;;;;;;;;;;;;;;;22.87;34.15;97690.75;4908170;29;1173;-78
2023/08/04 12:40:19;;;;;;;;;;;;;;;22.79;34.47;97683.72;4923628;29;1305;-77
2023/08/04 12:42:44;;;;;;;;;;;;;;;22.71;35.16;97690.94;4908624;29;1336;-77
2023/08/04 12:45:10;;;;;;;;;;;;;;;22.83;34.91;97684.41;4954293;29;1503;-78
2023/08/04 12:47:35;;;;;;;;;;;;;;;23.11;34.49;97682.59;4940704;29;1910;-78
2023/08/04 12:50:01;;;;;;;;;;;;;;;23.19;34.25;97682.31;4953992;28;1533;-77
2023/08/04 12:52:27;;;;;;;;;;;;;;;23.23;34.04;97683.75;4956475;29;885;-77
2023/08/04 12:54:52;;;;;;;;;;;;;;;23.17;33.69;97682.78;4956792;29;1148;-78